createdAt,value
2023-05-07T00:03:15.149Z,101479.78
2023-05-07T00:08:37.043Z,101486.41
2023-05-07T00:13:58.934Z,101479.44
2023-05-07T00:19:20.892Z,101479.44
2023-05-07T00:24:42.651Z,101484.16
2023-05-07T00:30:04.742Z,101472.44
2023-05-07T00:35:26.664Z,101469.66
2023-05-07T00:40:48.472Z,101471.56
2023-05-07T00:46:11.407Z,101465.44
2023-05-07T00:51:34.391Z,101457.09
2023-05-07T00:56:56.531Z,101452.63
2023-05-07T01:02:18.558Z,101458.19
2023-05-07T01:07:42.201Z,101447.31
2023-05-07T01:13:04.623Z,101446.47
2023-05-07T01:18:27.840Z,101435.59
2023-05-07T01:23:50.213Z,101423.66
2023-05-07T01:29:12.238Z,101429.22
2023-05-07T01:34:37.465Z,101418.34
2023-05-07T01:39:59.750Z,101424.13
2023-05-07T01:45:25.119Z,101429.69
2023-05-07T01:50:48.410Z,101429.94
2023-05-07T01:56:10.180Z,101436.31
2023-05-07T02:01:32.171Z,101428.00
2023-05-07T02:06:54.109Z,101435.72
2023-05-07T02:12:16.048Z,101422.09
2023-05-07T02:17:58.676Z,101423.78
2023-05-07T02:23:20.574Z,101436.84
2023-05-07T02:28:42.401Z,101435.16
2023-05-07T02:34:05.113Z,101439.84
2023-05-07T02:39:26.989Z,101442.88
2023-05-07T02:44:48.794Z,101442.88
2023-05-07T02:50:11.172Z,101442.25
2023-05-07T02:55:33.303Z,101431.16
2023-05-07T03:00:58.409Z,101429.47
2023-05-07T03:06:20.347Z,101418.56
2023-05-07T03:11:42.120Z,101425.81
2023-05-07T03:17:04.046Z,101433.28
2023-05-07T03:22:25.867Z,101429.69
2023-05-07T03:27:47.746Z,101426.91
2023-05-07T03:33:09.512Z,101443.78
2023-05-07T03:38:31.312Z,101442.97
2023-05-07T03:43:53.173Z,101436.56
2023-05-07T03:49:14.958Z,101433.78
2023-05-07T03:54:36.892Z,101442.34
2023-05-07T03:59:58.792Z,101449.84
2023-05-07T04:05:20.620Z,101448.16
2023-05-07T04:10:42.447Z,101449.00
2023-05-07T04:16:06.374Z,101459.50
2023-05-07T04:21:28.214Z,101461.19
2023-05-07T04:26:50.053Z,101448.66
2023-05-07T04:32:11.954Z,101440.31
2023-05-07T04:37:34.165Z,101443.09
2023-05-07T04:42:56.550Z,101442.47
2023-05-07T04:48:20.407Z,101441.66
2023-05-07T04:53:42.723Z,101439.72
2023-05-07T04:59:04.520Z,101449.13
2023-05-07T05:04:26.993Z,101449.97
2023-05-07T05:09:48.844Z,101456.63
2023-05-07T05:15:12.475Z,101461.31
2023-05-07T05:20:34.497Z,101456.84
2023-05-07T05:26:00.147Z,101459.63
2023-05-07T05:31:22.605Z,101460.69
2023-05-07T05:36:45.100Z,101468.81
2023-05-07T05:42:07.043Z,101474.38
2023-05-07T05:47:28.857Z,101484.13
2023-05-07T05:52:50.804Z,101482.91
2023-05-07T05:58:12.738Z,101492.00
2023-05-07T06:03:34.685Z,101482.84
2023-05-07T06:08:56.604Z,101484.16
2023-05-07T06:14:18.499Z,101493.44
2023-05-07T06:19:40.297Z,101485.72
2023-05-07T06:25:02.369Z,101492.97
2023-05-07T06:30:24.204Z,101490.44
2023-05-07T06:35:46.223Z,101500.69
2023-05-07T06:41:08.530Z,101495.41
2023-05-07T06:46:30.602Z,101500.34
2023-05-07T06:51:52.452Z,101510.00
2023-05-07T06:57:14.228Z,101513.88
2023-05-07T07:02:36.194Z,101512.41
2023-05-07T07:07:58.079Z,101525.72
2023-05-07T07:13:20.582Z,101535.13
2023-05-07T07:18:42.430Z,101529.59
2023-05-07T07:24:04.529Z,101531.50
2023-05-07T07:29:27.926Z,101544.56
2023-05-07T07:34:49.953Z,101549.25
2023-05-07T07:40:13.291Z,101542.38
2023-05-07T07:45:36.131Z,101557.34
2023-05-07T07:50:58.047Z,101547.94
2023-05-07T07:56:19.802Z,101544.03
2023-05-07T08:01:41.590Z,101541.88
2023-05-07T08:07:03.531Z,101552.50
2023-05-07T08:12:25.556Z,101546.47
2023-05-07T08:17:47.472Z,101550.22
2023-05-07T08:23:09.415Z,101557.97
2023-05-07T08:28:31.306Z,101560.59
2023-05-07T08:33:53.106Z,101553.81
2023-05-07T08:39:17.380Z,101558.41
2023-05-07T08:44:40.011Z,101578.56
2023-05-07T08:50:03.314Z,101582.56
2023-05-07T08:55:25.943Z,101577.63
2023-05-07T09:00:48.587Z,101583.53
2023-05-07T09:06:10.329Z,101580.50
2023-05-07T09:11:32.270Z,101584.97
2023-05-07T09:16:55.007Z,101592.47
2023-05-07T09:22:17.496Z,101596.69
2023-05-07T09:27:39.354Z,101603.94
2023-05-07T09:33:03.042Z,101603.94
2023-05-07T09:38:25.185Z,101611.84
2023-05-07T09:43:47.077Z,101621.88
2023-05-07T09:49:15.339Z,101618.47
2023-05-07T09:54:39.341Z,101615.72
2023-05-07T10:00:04.055Z,101616.31
2023-05-07T10:05:26.918Z,101621.25
2023-05-07T10:10:50.380Z,101618.47
2023-05-07T10:16:12.284Z,101631.31
2023-05-07T10:21:58.237Z,101630.78
2023-05-07T10:27:21.704Z,101634.69
2023-05-07T10:32:56.596Z,101636.34
2023-05-07T10:38:18.794Z,101646.38
2023-05-07T10:43:45.454Z,101654.50
2023-05-07T10:49:07.845Z,101658.38
2023-05-07T10:54:29.663Z,101655.81
2023-05-07T10:59:51.985Z,101664.66
2023-05-07T11:05:23.736Z,101666.81
2023-05-07T11:10:50.580Z,101664.50
2023-05-07T11:16:26.387Z,101667.75
2023-05-07T11:21:49.668Z,101672.13
2023-05-07T11:27:11.715Z,101677.69
2023-05-07T11:32:33.776Z,101685.91
2023-05-07T11:38:01.814Z,101671.28
2023-05-07T11:43:23.911Z,101669.34
2023-05-07T11:48:45.908Z,101669.97
2023-05-07T11:54:12.493Z,101673.31
2023-05-07T11:59:41.618Z,101671.75
2023-05-07T12:05:03.835Z,101676.25
2023-05-07T12:10:26.221Z,101672.75
2023-05-07T12:15:51.687Z,101672.88
2023-05-07T12:21:13.563Z,101679.06
2023-05-07T12:26:39.507Z,101670.81
2023-05-07T12:32:01.685Z,101682.28
2023-05-07T12:37:29.061Z,101679.03
2023-05-07T12:42:57.057Z,101683.03
2023-05-07T12:48:21.145Z,101685.66
2023-05-07T12:53:44.992Z,101695.59
2023-05-07T12:59:06.854Z,101695.19
2023-05-07T13:04:28.777Z,101692.00
2023-05-07T13:09:50.642Z,101698.31
2023-05-07T13:15:12.722Z,101703.97
2023-05-07T13:20:34.635Z,101705.19
2023-05-07T13:25:57.415Z,101712.19
2023-05-07T13:31:19.391Z,101709.19
2023-05-07T13:36:43.152Z,101712.31
2023-05-07T13:42:05.015Z,101716.53
2023-05-07T13:47:27.016Z,101716.53
2023-05-07T13:52:52.062Z,101716.06
2023-05-07T13:58:13.892Z,101714.97
2023-05-07T14:03:36.437Z,101715.78
2023-05-07T14:08:59.398Z,101714.97
2023-05-07T14:14:21.305Z,101721.34
2023-05-07T14:19:43.064Z,101716.06
2023-05-07T14:25:07.160Z,101723.53
2023-05-07T14:30:29.213Z,101726.84
2023-05-07T14:35:51.388Z,101737.59
2023-05-07T14:41:13.622Z,101729.78
2023-05-07T14:46:35.497Z,101718.25
2023-05-07T14:51:59.470Z,101717.66
2023-05-07T14:57:21.331Z,101715.09
2023-05-07T15:02:43.261Z,101711.72
2023-05-07T15:08:05.305Z,101713.66
2023-05-07T15:13:27.243Z,101712.22
2023-05-07T15:18:49.911Z,101717.19
2023-05-07T15:24:11.719Z,101726.03
2023-05-07T15:29:33.581Z,101720.94
2023-05-07T15:34:55.356Z,101717.53
2023-05-07T15:40:17.626Z,101709.72
2023-05-07T15:45:44.303Z,101711.88
2023-05-07T15:51:08.028Z,101709.59
2023-05-07T15:56:33.561Z,101714.53
2023-05-07T16:01:55.704Z,101714.53
2023-05-07T16:07:17.557Z,101707.91
2023-05-07T16:12:39.426Z,101720.72
2023-05-07T16:18:01.538Z,101718.19
2023-05-07T16:23:23.351Z,101727.16
2023-05-07T16:28:45.480Z,101728.25
2023-05-07T16:34:07.755Z,101732.09
2023-05-07T16:39:29.821Z,101732.31
2023-05-07T16:44:51.626Z,101738.16
2023-05-07T16:50:13.500Z,101742.97
2023-05-07T16:55:39.572Z,101737.75
2023-05-07T17:01:02.782Z,101736.94
2023-05-07T17:06:24.595Z,101735.84
2023-05-07T17:11:46.381Z,101727.97
2023-05-07T17:17:08.250Z,101734.41
2023-05-07T17:22:30.361Z,101742.97
2023-05-07T17:27:52.497Z,101742.97
2023-05-07T17:33:20.868Z,101746.84
2023-05-07T17:38:43.935Z,101761.84
2023-05-07T17:44:05.965Z,101764.03
2023-05-07T17:49:28.022Z,101767.94
2023-05-07T17:54:50.134Z,101766.22
2023-05-07T18:00:12.881Z,101772.88
2023-05-07T18:05:38.191Z,101771.78
2023-05-07T18:11:00.974Z,101782.06
2023-05-07T18:16:23.165Z,101785.09
2023-05-07T18:21:44.966Z,101784.63
2023-05-07T18:27:06.772Z,101783.84
2023-05-07T18:32:28.553Z,101782.88
2023-05-07T18:37:50.587Z,101788.47
2023-05-07T18:43:12.459Z,101791.75
2023-05-07T18:48:34.300Z,101794.09
2023-05-07T18:53:56.115Z,101797.06
2023-05-07T18:59:17.937Z,101803.59
2023-05-07T19:04:40.529Z,101809.16
2023-05-07T19:10:05.600Z,101816.09
2023-05-07T19:15:27.943Z,101817.13
2023-05-07T19:20:52.134Z,101830.13
2023-05-07T19:26:16.447Z,101840.56
2023-05-07T19:31:38.425Z,101860.47
2023-05-07T19:37:00.335Z,101867.53
2023-05-07T19:42:22.097Z,101877.94
2023-05-07T19:47:43.926Z,101879.44
2023-05-07T19:53:05.927Z,101886.47
2023-05-07T19:58:27.690Z,101895.19
2023-05-07T20:03:49.630Z,101905.16
2023-05-07T20:09:13.278Z,101899.19
2023-05-07T20:14:35.193Z,101905.63
2023-05-07T20:19:57.010Z,101901.63
2023-05-07T20:25:19.122Z,101900.19
2023-05-07T20:30:41.015Z,101898.75
2023-05-07T20:36:02.943Z,101894.75
2023-05-07T20:41:28.020Z,101902.97
2023-05-07T20:46:50.458Z,101907.34
2023-05-07T20:52:12.254Z,101906.09
2023-05-07T20:57:34.108Z,101909.59
2023-05-07T21:02:56.153Z,101910.34
2023-05-07T21:08:18.102Z,101911.06
2023-05-07T21:13:39.844Z,101924.38
2023-05-07T21:19:01.781Z,101932.56
2023-05-07T21:24:24.847Z,101930.50
2023-05-07T21:29:46.918Z,101940.44
2023-05-07T21:35:08.948Z,101937.06
2023-05-07T21:40:30.769Z,101942.25
2023-05-07T21:45:52.690Z,101938.00
2023-05-07T21:51:14.490Z,101942.94
2023-05-07T21:56:36.281Z,101934.00
2023-05-07T22:01:58.198Z,101934.47
2023-05-07T22:07:20.071Z,101927.47
2023-05-07T22:12:41.886Z,101938.81
2023-05-07T22:18:03.893Z,101937.38
2023-05-07T22:23:25.841Z,101940.38
2023-05-07T22:28:47.621Z,101927.78
2023-05-07T22:34:09.422Z,101932.53
2023-05-07T22:39:34.570Z,101925.47
2023-05-07T22:44:56.765Z,101934.94
2023-05-07T22:50:18.663Z,101937.94
2023-05-07T22:55:40.458Z,101941.78
2023-05-07T23:01:02.696Z,101936.69
2023-05-07T23:06:24.680Z,101933.91
2023-05-07T23:11:46.468Z,101936.94
2023-05-07T23:17:08.906Z,101932.72
2023-05-07T23:22:30.736Z,101934.63
2023-05-07T23:27:52.611Z,101937.63
2023-05-07T23:33:14.415Z,101934.22
2023-05-07T23:38:36.336Z,101938.09
2023-05-07T23:43:58.124Z,101945.81
2023-05-07T23:49:19.864Z,101942.44
2023-05-07T23:54:41.970Z,101943.28
